Chase, Canada
Current Conditions -  °F | °C
As of 6:00 AM on Sunday 25 Jan 2015 (Local Time) from CYKA Reporting Station
Overcast Overcast  
Wind Chill: 33°   Ceiling: 1100
Heat Index: 37°   Visibility: 30mi
Dew Point: 34°   Wind: 6mph
Humidity: 87%   Direction: 70°ENE
Pressure: 30.1"   Gusts: NA
Location:  50.82°N, 119.68°W
Report Text: CYKA 251400Z 07005KT 30SM BKN011 OVC090 03/01 A3010 RMK ST7AC1 SLP208
Loading
Personal Weather Stations






























Interactive Weather Map New forecast layout! Learn more

10-Day Weather Forecast

Advertisements
Track Severe Weather on mobile